SCARSLLP

Guest
Details From SCAR - CHACALLUTA
To SLLP - La Paz
Flight Number -
Tags generated
Created
Modified
Stats Distance 165 nm / 306 km
Max Altitude 19,700 ft / 6,005 m
Waypoints 3
Social Downloads 0
Likes 0
Share VATSIM

Download

Looking for another format? Having issues loading an existing format? Contact us
Advertisement - Login to hide

Notes

Basic altitude profile: - Ascent Rate: 2500ft/min - Ascent Speed: 250kts - Cruise Altitude: 35000ft - Cruise Speed: 420kts - Descent Rate: 1500ft/min - Descent Speed: 250kts Options: - Use NATs: yes - Use PACOTS: yes - Use low airways: yes - Use high airways: yes

Route

SCAR VAGUR SLLP

ID Type Via Altitude Latitude Longitude Leg Dist Tot Dist Heading (true) Name
O SCAR APT - 0 ft / 0 m -18.34853˚ -70.33874˚ - 0 nm - CHACALLUTA
VAGUR FIX - 19,700 ft / 6,005 m -17.58944˚ -69.44167˚ 68 nm 68 nm 48° / 48° -
O SLLP APT - 0 ft / 0 m -16.50936˚ -68.19055˚ 96 nm 165 nm 48° / 48° La Paz

Altitude Profile

Advertisement - Login to hide

Weather


0- 5 10 15 20 25 30 35+ Temperature / ° C

Clouds and Precipitation
Forecast for 2018-05-23 12:00 UTC. Updated 2 hours ago

Ground ~20,000 ft ~40,000 ft Winds

SCAR

Details ICAO SCAR (ARI)
Name CHACALLUTA
Region Chile
Timezone America/Santiago (UTC-4.0)
Stats Elevation 167 ft / 51 m (AMSL)
Location -18.348530° -70.338741°
Runways 1
Magnetic Variation 5.572° W

METAR

SCAR 231300Z 18003KT 130V220 9999 OVC027 18/12 Q1017

Decode

TAF

TAF SCAR 230442Z 2306/2406 09004KT 9999 BKN090 TN16/2306Z TX20/2317Z BECMG 2316/2318 22012KT CAVOK BECMG 2400/2402 19004KT OVC025 BECMG 2402/2404 09004KT

Decode

Departure Runways

ID Width Length Bearing (true) Bearing (mag) Surface Threshold Offset Overrun Length
02 148 ft / 45 m 7,184 ft / 2,190 m 19.17° 24.74° Asphalt 0 ft / 0 m 2,075 ft / 632 m
20 148 ft / 45 m 7,184 ft / 2,190 m 199.17° 204.74° Asphalt 0 ft / 0 m 197 ft / 60 m

SLLP

Details ICAO SLLP (LPB)
Name La Paz
Region Bolivia
Timezone America/La_Paz (UTC-4.0)
Stats Elevation 13,313 ft / 4,058 m (AMSL)
Location -16.509356° -68.190551°
Runways 2
Magnetic Variation 8.001° W

METAR

SLLP 231300Z 26006KT 9000 NSC 08/M06 Q1039

Decode

TAF

Not found

Destination Runways

ID Width Length Bearing (true) Bearing (mag) Surface Threshold Offset Overrun Length
10 151 ft / 46 m 13,106 ft / 3,995 m 91.90° 99.90° Concrete 0 ft / 0 m 200 ft / 61 m
10L 300 ft / 91 m 6,718 ft / 2,048 m 97.72° 105.72° Dirt 0 ft / 0 m 0 ft / 0 m
28 151 ft / 46 m 13,106 ft / 3,995 m 271.89° 279.89° Concrete 0 ft / 0 m 0 ft / 0 m
28R 300 ft / 91 m 6,718 ft / 2,048 m 277.71° 285.71° Dirt 0 ft / 0 m 0 ft / 0 m

Approach Navaids

Runway Type Ident Frequency Range Bearing (true) Bearing (mag) Slope Elevation
10 Localiser ILPA 110.30 MHz 18 nm / 33 km 91.89° 99.89° - 13,313 ft / 4,058 m (AMSL)
10 Glidescope ILPA 110.30 MHz 10 nm / 19 km 91.89° 99.89° 2.40° 13,313 ft / 4,058 m (AMSL)

Popular Alternatives